createdAt,value
2022-08-16T00:01:17.447Z,98071.13
2022-08-16T00:04:05.331Z,98069.56
2022-08-16T00:06:51.325Z,98069.13
2022-08-16T00:09:36.948Z,98070.38
2022-08-16T00:12:22.191Z,98073.16
2022-08-16T00:15:22.316Z,98066.34
2022-08-16T00:18:12.386Z,98071.13
2022-08-16T00:20:58.035Z,98064.81
2022-08-16T00:23:46.258Z,98064.00
2022-08-16T00:26:35.104Z,98059.22
2022-08-16T00:29:24.566Z,98066.78
2022-08-16T00:32:11.803Z,98062.47
2022-08-16T00:35:04.636Z,98066.78
2022-08-16T00:38:03.152Z,98063.22
2022-08-16T00:41:09.667Z,98061.22
2022-08-16T00:43:57.871Z,98057.66
2022-08-16T00:47:06.785Z,98052.88
2022-08-16T00:49:56.274Z,98064.00
2022-08-16T00:52:50.317Z,98063.22
2022-08-16T00:55:50.010Z,98061.22
2022-08-16T00:58:40.704Z,98057.66
2022-08-16T01:01:29.199Z,98071.59
2022-08-16T01:04:29.725Z,98079.94
2022-08-16T01:07:17.718Z,98079.16
2022-08-16T01:10:04.523Z,98079.94
2022-08-16T01:13:06.557Z,98083.19
2022-08-16T01:15:56.706Z,98079.16
2022-08-16T01:19:11.287Z,98085.50
2022-08-16T01:22:49.715Z,98079.16
2022-08-16T01:25:15.358Z,98083.19
2022-08-16T01:28:05.074Z,98094.31
2022-08-16T01:30:55.966Z,98094.31
2022-08-16T01:33:44.638Z,98088.75
2022-08-16T01:36:30.559Z,98085.66
2022-08-16T01:39:17.426Z,98085.66
2022-08-16T01:42:12.010Z,98089.97
2022-08-16T01:44:58.764Z,98087.19
2022-08-16T01:47:49.428Z,98087.19
2022-08-16T01:50:41.867Z,98078.84
2022-08-16T01:53:44.494Z,98089.22
2022-08-16T01:56:48.277Z,98086.88
2022-08-16T01:59:37.398Z,98086.44
2022-08-16T02:02:27.358Z,98086.88
2022-08-16T02:05:14.407Z,98083.31
2022-08-16T02:08:00.974Z,98095.22
2022-08-16T02:10:47.406Z,98083.31
2022-08-16T02:13:33.321Z,98088.13
2022-08-16T02:16:20.449Z,98085.66
2022-08-16T02:19:16.181Z,98083.31
2022-08-16T02:22:07.718Z,98088.13
2022-08-16T02:24:55.372Z,98083.31
2022-08-16T02:27:43.289Z,98081.31
2022-08-16T02:30:35.933Z,98083.31
2022-08-16T02:33:44.134Z,98081.00
2022-08-16T02:36:50.651Z,98084.53
2022-08-16T02:39:39.086Z,98087.31
2022-08-16T02:42:27.389Z,98088.56
2022-08-16T02:45:15.219Z,98086.56
2022-08-16T02:48:29.502Z,98088.13
2022-08-16T02:51:11.236Z,98076.69
2022-08-16T02:53:59.276Z,98091.66
2022-08-16T02:56:47.800Z,98087.81
2022-08-16T02:59:39.863Z,98085.03
2022-08-16T03:02:31.873Z,98091.34
2022-08-16T03:05:22.667Z,98094.91
2022-08-16T03:08:50.874Z,98090.59
2022-08-16T03:11:21.813Z,98104.03
2022-08-16T03:14:08.480Z,98101.72
2022-08-16T03:16:59.510Z,98097.69
2022-08-16T03:19:59.605Z,98101.72
2022-08-16T03:22:51.044Z,98098.94
2022-08-16T03:25:43.302Z,98095.38
2022-08-16T03:28:32.172Z,98110.84
2022-08-16T03:31:18.248Z,98097.69
2022-08-16T03:34:04.201Z,98111.59
2022-08-16T03:36:49.455Z,98101.72
2022-08-16T03:39:36.120Z,98123.97
2022-08-16T03:42:28.588Z,98118.41
2022-08-16T03:45:16.634Z,98121.19
2022-08-16T03:48:02.792Z,98120.44
2022-08-16T03:50:59.963Z,98135.09
2022-08-16T03:54:01.386Z,98130.31
2022-08-16T03:56:57.765Z,98127.97
2022-08-16T03:59:47.840Z,98128.78
2022-08-16T04:02:37.131Z,98112.84
2022-08-16T04:05:28.366Z,98125.19
2022-08-16T04:08:23.218Z,98126.28
2022-08-16T04:11:16.446Z,98132.31
2022-08-16T04:14:08.602Z,98140.66
2022-08-16T04:17:08.367Z,98141.44
2022-08-16T04:19:58.117Z,98153.81
2022-08-16T04:22:45.898Z,98154.25
2022-08-16T04:25:36.261Z,98161.38
2022-08-16T04:28:29.351Z,98157.38
2022-08-16T04:31:30.518Z,98164.94
2022-08-16T04:34:16.813Z,98171.28
2022-08-16T04:37:07.016Z,98170.03
2022-08-16T04:39:57.566Z,98169.72
2022-08-16T04:42:45.954Z,98180.84
2022-08-16T04:45:35.724Z,98176.53
2022-08-16T04:48:28.378Z,98177.28
2022-08-16T04:51:21.944Z,98184.88
2022-08-16T04:54:10.375Z,98180.84
2022-08-16T04:56:56.913Z,98193.53
2022-08-16T04:59:44.071Z,98182.09
2022-08-16T05:02:41.989Z,98186.09
2022-08-16T05:05:32.890Z,98182.09
2022-08-16T05:08:30.169Z,98187.66
2022-08-16T05:11:32.353Z,98180.84
2022-08-16T05:14:46.069Z,98186.09
2022-08-16T05:17:26.965Z,98197.22
2022-08-16T05:20:38.422Z,98196.44
2022-08-16T05:23:23.355Z,98197.22
2022-08-16T05:26:19.601Z,98199.66
2022-08-16T05:29:07.484Z,98195.69
2022-08-16T05:31:59.463Z,98200.00
2022-08-16T05:34:44.953Z,98192.44
2022-08-16T05:37:39.669Z,98193.84
2022-08-16T05:40:27.836Z,98198.19
2022-08-16T05:43:13.864Z,98209.00
2022-08-16T05:46:00.764Z,98198.78
2022-08-16T05:48:54.883Z,98202.00
2022-08-16T05:51:45.843Z,98203.41
2022-08-16T05:54:34.483Z,98212.09
2022-08-16T05:57:21.360Z,98209.63
2022-08-16T06:00:12.466Z,98203.41
2022-08-16T06:03:12.941Z,98207.44
2022-08-16T06:06:15.803Z,98205.13
2022-08-16T06:09:17.862Z,98211.94
2022-08-16T06:12:04.132Z,98209.16
2022-08-16T06:14:51.336Z,98212.69
2022-08-16T06:17:42.812Z,98209.91
2022-08-16T06:20:36.862Z,98213.91
2022-08-16T06:23:41.032Z,98211.13
2022-08-16T06:26:36.826Z,98212.38
2022-08-16T06:29:24.489Z,98211.59
2022-08-16T06:32:11.708Z,98218.69
2022-08-16T06:35:15.811Z,98215.16
2022-08-16T06:38:04.721Z,98212.38
2022-08-16T06:40:51.204Z,98217.16
2022-08-16T06:43:38.004Z,98211.59
2022-08-16T06:46:34.230Z,98210.34
2022-08-16T06:49:26.996Z,98218.69
2022-08-16T06:52:58.460Z,98227.81
2022-08-16T06:55:20.795Z,98236.97
2022-08-16T06:58:22.302Z,98236.16
2022-08-16T07:01:14.919Z,98244.50
2022-08-16T07:04:12.039Z,98249.63
2022-08-16T07:06:58.877Z,98246.09
2022-08-16T07:09:45.432Z,98244.84
2022-08-16T07:12:36.813Z,98244.84
2022-08-16T07:15:34.618Z,98245.16
2022-08-16T07:18:21.400Z,98246.72
2022-08-16T07:21:12.106Z,98249.50
2022-08-16T07:24:05.794Z,98259.41
2022-08-16T07:26:53.812Z,98258.94
2022-08-16T07:29:40.574Z,98266.06
2022-08-16T07:32:29.624Z,98271.19
2022-08-16T07:35:18.596Z,98271.94
2022-08-16T07:38:06.386Z,98277.06
2022-08-16T07:41:09.747Z,98272.28
2022-08-16T07:43:59.920Z,98274.28
2022-08-16T07:46:47.686Z,98283.72
2022-08-16T07:49:53.271Z,98278.94
2022-08-16T07:52:46.040Z,98279.25
2022-08-16T07:55:45.576Z,98279.25
2022-08-16T07:58:36.476Z,98278.38
2022-08-16T08:01:32.033Z,98281.91
2022-08-16T08:04:18.376Z,98279.91
2022-08-16T08:07:08.997Z,98287.31
2022-08-16T08:09:57.649Z,98290.91
2022-08-16T08:12:44.310Z,98282.09
2022-08-16T08:15:34.367Z,98285.66
2022-08-16T08:18:29.150Z,98284.41
2022-08-16T08:21:27.365Z,98291.09
2022-08-16T08:24:15.364Z,98293.09
2022-08-16T08:27:03.907Z,98296.19
2022-08-16T08:30:09.171Z,98289.38
2022-08-16T08:33:00.682Z,98297.75
2022-08-16T08:35:57.018Z,98298.50
2022-08-16T08:38:46.386Z,98295.28
2022-08-16T08:41:36.620Z,98294.50
2022-08-16T08:44:28.714Z,98297.28
2022-08-16T08:47:18.917Z,98300.41
2022-08-16T08:50:09.176Z,98299.16
2022-08-16T08:52:56.177Z,98299.16
2022-08-16T08:55:42.548Z,98291.59
2022-08-16T08:58:34.329Z,98290.34
2022-08-16T09:01:57.311Z,98295.16
2022-08-16T09:04:47.609Z,98296.69
2022-08-16T09:08:00.678Z,98289.91
2022-08-16T09:10:59.264Z,98301.03
2022-08-16T09:13:48.800Z,98299.81
2022-08-16T09:17:01.797Z,98301.81
2022-08-16T09:19:44.908Z,98293.47
2022-08-16T09:22:31.147Z,98290.69
2022-08-16T09:25:23.039Z,98295.16
2022-08-16T09:28:12.382Z,98297.63
2022-08-16T09:31:32.204Z,98286.94
2022-08-16T09:34:19.319Z,98288.94
2022-08-16T09:37:17.637Z,98291.72
2022-08-16T09:40:32.132Z,98290.16
2022-08-16T09:43:46.383Z,98287.38
2022-08-16T09:46:33.343Z,98286.16
2022-08-16T09:49:36.892Z,98277.16
2022-08-16T09:52:22.984Z,98284.31
2022-08-16T09:55:12.545Z,98285.84
2022-08-16T09:57:58.256Z,98287.09
2022-08-16T10:00:45.605Z,98276.72
2022-08-16T10:03:31.630Z,98280.28
2022-08-16T10:06:19.032Z,98283.81
2022-08-16T10:09:11.228Z,98276.56
2022-08-16T10:12:19.789Z,98278.13
2022-08-16T10:15:08.753Z,98282.13
2022-08-16T10:18:40.966Z,98271.47
2022-08-16T10:21:16.400Z,98276.56
2022-08-16T10:24:02.253Z,98270.66
2022-08-16T10:27:16.755Z,98272.25
2022-08-16T10:29:59.954Z,98271.00
2022-08-16T10:32:51.795Z,98273.31
2022-08-16T10:35:46.674Z,98274.09
2022-08-16T10:38:36.674Z,98268.84
2022-08-16T10:41:25.270Z,98272.41
2022-08-16T10:44:11.055Z,98268.41
2022-08-16T10:46:56.753Z,98277.53
2022-08-16T10:49:42.255Z,98271.97
2022-08-16T10:52:27.553Z,98269.63
2022-08-16T10:58:23.302Z,98270.41
2022-08-16T11:01:43.435Z,98266.06
2022-08-16T11:05:04.785Z,98258.47
2022-08-16T11:07:52.433Z,98263.16
2022-08-16T11:14:10.886Z,98252.78
2022-08-16T11:17:10.412Z,98258.34
2022-08-16T11:23:02.468Z,98259.13
2022-08-16T11:26:22.846Z,98246.28
2022-08-16T11:32:05.539Z,98250.00
2022-08-16T11:35:13.419Z,98248.78
2022-08-16T11:38:47.858Z,98244.00
2022-08-16T11:41:13.968Z,98249.88
2022-08-16T11:43:59.419Z,98238.25
2022-08-16T11:46:46.741Z,98245.41
2022-08-16T11:49:32.195Z,98245.41
2022-08-16T11:52:18.090Z,98249.72
2022-08-16T11:55:10.341Z,98247.69
2022-08-16T11:57:56.520Z,98250.03
2022-08-16T12:00:51.244Z,98244.47
2022-08-16T12:03:38.303Z,98243.25
2022-08-16T12:06:30.885Z,98238.44
2022-08-16T12:09:19.759Z,98230.88
2022-08-16T12:12:05.739Z,98236.44
2022-08-16T12:14:59.947Z,98226.88
2022-08-16T12:17:46.462Z,98226.88
2022-08-16T12:20:36.148Z,98224.53
2022-08-16T12:23:21.364Z,98223.75
2022-08-16T12:26:10.340Z,98232.44
2022-08-16T12:28:56.530Z,98223.28
2022-08-16T12:31:59.139Z,98224.06
2022-08-16T12:34:50.755Z,98238.78
2022-08-16T12:37:39.222Z,98234.91
2022-08-16T12:40:31.937Z,98240.47
2022-08-16T12:43:18.471Z,98236.88
2022-08-16T12:46:11.540Z,98237.69
2022-08-16T12:49:00.064Z,98238.91
2022-08-16T12:51:58.481Z,98238.91
2022-08-16T12:54:45.751Z,98238.91
2022-08-16T12:57:41.070Z,98234.56
2022-08-16T13:00:32.862Z,98233.78
2022-08-16T13:03:21.540Z,98237.81
2022-08-16T13:06:08.138Z,98229.47
2022-08-16T13:08:55.567Z,98229.47
2022-08-16T13:11:54.999Z,98226.69
2022-08-16T13:14:45.261Z,98231.00
2022-08-16T13:17:30.781Z,98231.78
2022-08-16T13:20:19.190Z,98220.66
2022-08-16T13:23:11.506Z,98220.34
2022-08-16T13:25:57.495Z,98219.84
2022-08-16T13:28:47.774Z,98223.88
2022-08-16T13:31:33.385Z,98229.47
2022-08-16T13:34:19.236Z,98233.00
2022-08-16T13:37:04.913Z,98234.25
2022-08-16T13:39:51.701Z,98240.59
2022-08-16T13:42:41.539Z,98242.63
2022-08-16T13:45:33.149Z,98236.72
2022-08-16T13:48:24.700Z,98237.50
2022-08-16T13:51:17.072Z,98231.94
2022-08-16T13:54:04.155Z,98239.50
2022-08-16T13:56:49.875Z,98238.75
2022-08-16T13:59:35.674Z,98229.59
2022-08-16T14:02:23.695Z,98223.25
2022-08-16T14:05:10.932Z,98222.03
2022-08-16T14:07:56.576Z,98226.34
2022-08-16T14:10:42.296Z,98224.34
2022-08-16T14:13:27.686Z,98224.34
2022-08-16T14:16:23.869Z,98224.34
2022-08-16T14:19:11.110Z,98222.34
2022-08-16T14:22:14.055Z,98220.34
2022-08-16T14:25:03.169Z,98215.97
2022-08-16T14:27:48.763Z,98216.78
2022-08-16T14:30:40.567Z,98210.41
2022-08-16T14:33:26.735Z,98217.56
2022-08-16T14:36:25.049Z,98212.75
2022-08-16T14:39:15.295Z,98209.19
2022-08-16T14:42:11.006Z,98211.97
2022-08-16T14:45:00.357Z,98209.19
2022-08-16T14:47:46.755Z,98205.66
2022-08-16T14:50:35.451Z,98205.66
2022-08-16T14:53:23.907Z,98209.97
2022-08-16T14:56:17.436Z,98211.97
2022-08-16T14:59:14.896Z,98209.19
2022-08-16T15:02:01.217Z,98203.63
2022-08-16T15:04:48.418Z,98211.97
2022-08-16T15:07:35.529Z,98205.66
2022-08-16T15:10:24.623Z,98210.41
2022-08-16T15:13:15.123Z,98206.41
2022-08-16T15:16:03.002Z,98205.66
2022-08-16T15:18:49.197Z,98215.97
2022-08-16T15:21:35.913Z,98216.78
2022-08-16T15:24:22.895Z,98221.56
2022-08-16T15:27:08.550Z,98223.56
2022-08-16T15:29:57.720Z,98224.34
2022-08-16T15:32:45.858Z,98224.81
2022-08-16T15:35:31.871Z,98227.91
2022-08-16T15:38:43.546Z,98229.13
2022-08-16T15:41:47.921Z,98230.38
2022-08-16T15:44:44.598Z,98232.69
2022-08-16T15:47:38.846Z,98238.75
2022-08-16T15:50:24.759Z,98229.59
2022-08-16T15:53:17.773Z,98228.38
2022-08-16T15:56:03.813Z,98227.59
2022-08-16T15:58:51.590Z,98227.13
2022-08-16T16:01:41.159Z,98238.59
2022-08-16T16:04:28.616Z,98235.78
2022-08-16T16:07:14.332Z,98230.22
2022-08-16T16:10:01.879Z,98240.59
2022-08-16T16:12:51.528Z,98241.69
2022-08-16T16:15:42.888Z,98237.38
2022-08-16T16:18:30.127Z,98231.00
2022-08-16T16:21:20.567Z,98235.34
2022-08-16T16:24:21.491Z,98228.69
2022-08-16T16:27:10.122Z,98235.03
2022-08-16T16:30:01.618Z,98232.25
2022-08-16T16:32:48.440Z,98235.78
2022-08-16T16:35:36.283Z,98244.47
2022-08-16T16:38:21.611Z,98231.00
2022-08-16T16:41:11.067Z,98231.47
2022-08-16T16:43:58.051Z,98229.47
2022-08-16T16:46:44.698Z,98234.25
2022-08-16T16:49:42.537Z,98240.16
2022-08-16T16:52:43.376Z,98238.59
2022-08-16T16:55:30.629Z,98234.25
2022-08-16T16:58:53.285Z,98251.56
2022-08-16T17:01:59.093Z,98244.13
2022-08-16T17:04:48.635Z,98248.31
2022-08-16T17:07:34.917Z,98248.63
2022-08-16T17:10:46.679Z,98250.97
2022-08-16T17:13:27.181Z,98246.16
2022-08-16T17:16:18.625Z,98243.84
2022-08-16T17:19:16.282Z,98254.06
2022-08-16T17:22:05.751Z,98254.06
2022-08-16T17:25:00.596Z,98253.59
2022-08-16T17:27:51.159Z,98252.38
2022-08-16T17:30:45.333Z,98248.50
2022-08-16T17:33:36.923Z,98252.06
2022-08-16T17:36:38.703Z,98253.28
2022-08-16T17:39:54.865Z,98261.19
2022-08-16T17:42:47.978Z,98254.06
2022-08-16T17:45:33.855Z,98258.06
2022-08-16T17:48:19.344Z,98268.13
2022-08-16T17:51:06.058Z,98265.78
2022-08-16T17:53:51.624Z,98275.72
2022-08-16T17:56:36.830Z,98279.25
2022-08-16T17:59:24.126Z,98281.28
2022-08-16T18:02:14.398Z,98286.06
2022-08-16T18:05:16.307Z,98282.03
2022-08-16T18:08:01.711Z,98286.53
2022-08-16T18:10:47.748Z,98285.75
2022-08-16T18:13:35.640Z,98296.88
2022-08-16T18:16:20.998Z,98296.41
2022-08-16T18:19:06.377Z,98303.56
2022-08-16T18:22:10.198Z,98311.91
2022-08-16T18:24:56.696Z,98310.66
2022-08-16T18:27:41.977Z,98314.69
2022-08-16T18:30:27.408Z,98312.69
2022-08-16T18:33:12.988Z,98319.00
2022-08-16T18:35:58.451Z,98319.00
2022-08-16T18:38:43.836Z,98321.34
2022-08-16T18:41:30.558Z,98319.00
2022-08-16T18:44:25.809Z,98320.59
2022-08-16T18:47:14.312Z,98323.38
2022-08-16T18:50:00.491Z,98332.16
2022-08-16T18:52:58.193Z,98326.59
2022-08-16T18:55:45.391Z,98332.94
2022-08-16T18:58:33.993Z,98331.06
2022-08-16T19:01:20.200Z,98335.09
2022-08-16T19:04:05.895Z,98342.22
2022-08-16T19:07:11.289Z,98349.03
2022-08-16T19:09:56.585Z,98351.81
2022-08-16T19:12:42.416Z,98356.13
2022-08-16T19:15:29.020Z,98356.13
2022-08-16T19:18:14.902Z,98362.94
2022-08-16T19:21:00.373Z,98356.13
2022-08-16T19:23:45.993Z,98356.13
2022-08-16T19:26:33.863Z,98361.69
2022-08-16T19:29:19.010Z,98369.72
2022-08-16T19:32:04.869Z,98367.28
2022-08-16T19:34:55.773Z,98365.72
2022-08-16T19:37:55.772Z,98372.50
2022-08-16T19:40:41.368Z,98372.50
2022-08-16T19:43:26.609Z,98382.44
2022-08-16T19:46:12.027Z,98383.31
2022-08-16T19:48:57.629Z,98383.31
2022-08-16T19:51:43.261Z,98390.00
2022-08-16T19:54:28.609Z,98390.47
2022-08-16T19:57:22.779Z,98397.56
2022-08-16T20:00:15.245Z,98399.59
2022-08-16T20:03:00.927Z,98393.69
2022-08-16T20:05:47.548Z,98405.59
2022-08-16T20:08:33.353Z,98404.84
2022-08-16T20:11:18.887Z,98409.63
2022-08-16T20:14:04.338Z,98407.63
2022-08-16T20:16:49.696Z,98407.28
2022-08-16T20:19:40.045Z,98412.41
2022-08-16T20:22:52.400Z,98415.97
2022-08-16T20:25:41.294Z,98417.19
2022-08-16T20:28:39.379Z,98412.09
2022-08-16T20:31:32.797Z,98417.66
2022-08-16T20:34:18.489Z,98415.66
2022-08-16T20:37:05.224Z,98413.63
2022-08-16T20:40:27.807Z,98408.06
2022-08-16T20:43:02.418Z,98410.06
2022-08-16T20:45:48.179Z,98414.88
2022-08-16T20:48:33.693Z,98400.94
2022-08-16T20:51:19.078Z,98402.16
2022-08-16T20:54:04.428Z,98412.09
2022-08-16T20:56:50.079Z,98409.75
2022-08-16T20:59:35.798Z,98411.31
2022-08-16T21:02:27.013Z,98412.09
2022-08-16T21:05:19.793Z,98412.84
2022-08-16T21:08:27.912Z,98412.09
2022-08-16T21:11:11.404Z,98414.09
2022-08-16T21:14:00.374Z,98406.97
2022-08-16T21:16:46.159Z,98407.72
2022-08-16T21:19:32.306Z,98405.75
2022-08-16T21:22:22.101Z,98404.63
2022-08-16T21:25:10.640Z,98403.41
2022-08-16T21:28:40.718Z,98410.19
2022-08-16T21:31:02.068Z,98416.88
2022-08-16T21:33:55.332Z,98416.09
2022-08-16T21:36:41.005Z,98410.53
2022-08-16T21:39:26.548Z,98423.66
2022-08-16T21:42:15.354Z,98417.66
2022-08-16T21:45:00.912Z,98418.09
2022-08-16T21:47:46.291Z,98421.66
2022-08-16T21:50:32.147Z,98417.34
2022-08-16T21:53:20.993Z,98416.09
2022-08-16T21:56:06.808Z,98418.53
2022-08-16T21:58:55.445Z,98421.66
2022-08-16T22:01:43.087Z,98422.13
2022-08-16T22:04:36.598Z,98420.88
2022-08-16T22:07:23.437Z,98414.56
2022-08-16T22:11:05.843Z,98421.66
2022-08-16T22:13:23.244Z,98420.13
2022-08-16T22:16:08.915Z,98416.56
2022-08-16T22:18:54.397Z,98422.56
2022-08-16T22:21:40.186Z,98421.34
2022-08-16T22:24:25.994Z,98428.16
2022-08-16T22:27:11.500Z,98426.13
2022-08-16T22:29:58.390Z,98432.13
2022-08-16T22:32:44.642Z,98427.38
2022-08-16T22:35:29.814Z,98426.91
2022-08-16T22:38:55.171Z,98439.28
2022-08-16T22:41:22.121Z,98441.28
2022-08-16T22:44:07.275Z,98432.13
2022-08-16T22:46:52.801Z,98437.72
2022-08-16T22:49:38.059Z,98436.94
2022-08-16T22:52:41.000Z,98432.13
2022-08-16T22:55:30.130Z,98431.38
2022-08-16T22:58:15.733Z,98426.56
2022-08-16T23:01:01.034Z,98424.25
2022-08-16T23:03:46.276Z,98431.03
2022-08-16T23:06:31.592Z,98430.59
2022-08-16T23:09:16.771Z,98426.28
2022-08-16T23:12:04.099Z,98429.81
2022-08-16T23:14:49.295Z,98423.78
2022-08-16T23:17:40.173Z,98428.16
2022-08-16T23:20:28.280Z,98423.34
2022-08-16T23:23:21.247Z,98429.34
2022-08-16T23:26:46.784Z,98430.59
2022-08-16T23:29:21.998Z,98417.44
2022-08-16T23:32:11.780Z,98414.66
2022-08-16T23:34:57.019Z,98421.00
2022-08-16T23:37:43.863Z,98415.44
2022-08-16T23:40:30.291Z,98414.22
2022-08-16T23:43:22.380Z,98405.88
2022-08-16T23:46:08.230Z,98408.31
2022-08-16T23:49:57.512Z,98409.09
2022-08-16T23:52:07.549Z,98404.31
2022-08-16T23:54:53.114Z,98399.19
2022-08-16T23:57:38.243Z,98400.75
